sensor_id;sensor_type;location;lat;lon;timestamp;temperature;humidity
22765;DHT22;11549;50.852;3.816;2023-04-15T00:01:13;11.10;99.90
22765;DHT22;11549;50.852;3.816;2023-04-15T00:03:45;11.10;99.90
22765;DHT22;11549;50.852;3.816;2023-04-15T00:06:16;11.10;99.90
22765;DHT22;11549;50.852;3.816;2023-04-15T00:08:45;11.00;99.90
22765;DHT22;11549;50.852;3.816;2023-04-15T00:11:13;11.00;99.90
22765;DHT22;11549;50.852;3.816;2023-04-15T00:13:42;11.00;99.90
22765;DHT22;11549;50.852;3.816;2023-04-15T00:16:11;11.00;99.90
22765;DHT22;11549;50.852;3.816;2023-04-15T00:18:40;11.00;99.90
22765;DHT22;11549;50.852;3.816;2023-04-15T00:21:08;10.90;99.90
22765;DHT22;11549;50.852;3.816;2023-04-15T00:23:38;10.90;99.90
22765;DHT22;11549;50.852;3.816;2023-04-15T00:26:06;10.90;99.90
22765;DHT22;11549;50.852;3.816;2023-04-15T00:28:34;10.90;99.90
22765;DHT22;11549;50.852;3.816;2023-04-15T00:31:02;10.90;99.90
22765;DHT22;11549;50.852;3.816;2023-04-15T00:33:31;10.90;99.90
22765;DHT22;11549;50.852;3.816;2023-04-15T00:35:59;10.90;99.90
22765;DHT22;11549;50.852;3.816;2023-04-15T00:38:28;10.80;99.90
22765;DHT22;11549;50.852;3.816;2023-04-15T00:40:58;10.80;99.90
22765;DHT22;11549;50.852;3.816;2023-04-15T00:43:27;10.70;99.90
22765;DHT22;11549;50.852;3.816;2023-04-15T00:45:56;10.70;99.90
22765;DHT22;11549;50.852;3.816;2023-04-15T00:48:26;10.70;99.90
22765;DHT22;11549;50.852;3.816;2023-04-15T00:50:55;10.60;99.90
22765;DHT22;11549;50.852;3.816;2023-04-15T00:53:23;10.60;99.90
22765;DHT22;11549;50.852;3.816;2023-04-15T00:55:51;10.60;99.90
22765;DHT22;11549;50.852;3.816;2023-04-15T00:58:22;10.60;99.90
22765;DHT22;11549;50.852;3.816;2023-04-15T01:00:51;10.60;99.90
22765;DHT22;11549;50.852;3.816;2023-04-15T01:03:20;10.50;99.90
22765;DHT22;11549;50.852;3.816;2023-04-15T01:05:49;10.50;99.90
22765;DHT22;11549;50.852;3.816;2023-04-15T01:08:18;10.50;99.90
22765;DHT22;11549;50.852;3.816;2023-04-15T01:10:47;10.50;99.90
22765;DHT22;11549;50.852;3.816;2023-04-15T01:13:15;10.50;99.90
22765;DHT22;11549;50.852;3.816;2023-04-15T01:15:45;10.50;99.90
22765;DHT22;11549;50.852;3.816;2023-04-15T01:18:14;10.40;99.90
22765;DHT22;11549;50.852;3.816;2023-04-15T01:20:42;10.30;99.90
22765;DHT22;11549;50.852;3.816;2023-04-15T01:23:11;10.30;99.90
22765;DHT22;11549;50.852;3.816;2023-04-15T01:25:42;10.30;99.90
22765;DHT22;11549;50.852;3.816;2023-04-15T01:28:10;10.30;99.90
22765;DHT22;11549;50.852;3.816;2023-04-15T01:30:39;10.30;99.90
22765;DHT22;11549;50.852;3.816;2023-04-15T01:33:07;10.30;99.90
22765;DHT22;11549;50.852;3.816;2023-04-15T01:35:35;10.30;99.90
22765;DHT22;11549;50.852;3.816;2023-04-15T01:38:06;10.20;99.90
22765;DHT22;11549;50.852;3.816;2023-04-15T01:40:35;10.10;99.90
22765;DHT22;11549;50.852;3.816;2023-04-15T01:43:04;10.10;99.90
22765;DHT22;11549;50.852;3.816;2023-04-15T01:45:33;10.10;99.90
22765;DHT22;11549;50.852;3.816;2023-04-15T01:48:01;10.10;99.90
22765;DHT22;11549;50.852;3.816;2023-04-15T01:50:29;10.10;99.90
22765;DHT22;11549;50.852;3.816;2023-04-15T01:52:58;10.10;99.90
22765;DHT22;11549;50.852;3.816;2023-04-15T01:55:26;10.10;99.90
22765;DHT22;11549;50.852;3.816;2023-04-15T01:57:54;10.10;99.90
22765;DHT22;11549;50.852;3.816;2023-04-15T02:00:24;10.00;99.90
22765;DHT22;11549;50.852;3.816;2023-04-15T02:02:53;10.10;99.90
22765;DHT22;11549;50.852;3.816;2023-04-15T02:05:21;10.10;99.90
22765;DHT22;11549;50.852;3.816;2023-04-15T02:07:50;10.10;99.90
22765;DHT22;11549;50.852;3.816;2023-04-15T02:10:18;10.10;99.90
22765;DHT22;11549;50.852;3.816;2023-04-15T02:12:47;10.10;99.90
22765;DHT22;11549;50.852;3.816;2023-04-15T02:15:15;10.10;99.90
22765;DHT22;11549;50.852;3.816;2023-04-15T02:17:45;10.00;99.90
22765;DHT22;11549;50.852;3.816;2023-04-15T02:20:18;10.00;99.90
22765;DHT22;11549;50.852;3.816;2023-04-15T02:22:47;9.90;99.90
22765;DHT22;11549;50.852;3.816;2023-04-15T02:25:15;10.00;99.90
22765;DHT22;11549;50.852;3.816;2023-04-15T02:27:43;10.00;99.90
22765;DHT22;11549;50.852;3.816;2023-04-15T02:30:12;9.90;99.90
22765;DHT22;11549;50.852;3.816;2023-04-15T02:32:41;9.90;99.90
22765;DHT22;11549;50.852;3.816;2023-04-15T02:35:12;9.80;99.90
22765;DHT22;11549;50.852;3.816;2023-04-15T02:37:41;9.80;99.90
22765;DHT22;11549;50.852;3.816;2023-04-15T02:40:12;9.70;99.90
22765;DHT22;11549;50.852;3.816;2023-04-15T02:42:40;9.70;99.90
22765;DHT22;11549;50.852;3.816;2023-04-15T02:45:10;9.70;99.90
22765;DHT22;11549;50.852;3.816;2023-04-15T02:47:39;9.80;99.90
22765;DHT22;11549;50.852;3.816;2023-04-15T02:50:09;9.70;99.90
22765;DHT22;11549;50.852;3.816;2023-04-15T02:52:40;9.80;99.90
22765;DHT22;11549;50.852;3.816;2023-04-15T02:55:09;9.70;99.90
22765;DHT22;11549;50.852;3.816;2023-04-15T02:57:37;9.60;99.90
22765;DHT22;11549;50.852;3.816;2023-04-15T03:00:07;9.60;99.90
22765;DHT22;11549;50.852;3.816;2023-04-15T03:02:38;9.50;99.90
22765;DHT22;11549;50.852;3.816;2023-04-15T03:05:11;9.60;99.90
22765;DHT22;11549;50.852;3.816;2023-04-15T03:07:41;9.70;99.90
22765;DHT22;11549;50.852;3.816;2023-04-15T03:10:09;9.70;99.90
22765;DHT22;11549;50.852;3.816;2023-04-15T03:12:38;9.60;99.90
22765;DHT22;11549;50.852;3.816;2023-04-15T03:15:08;9.50;99.90
22765;DHT22;11549;50.852;3.816;2023-04-15T03:17:37;9.50;99.90
22765;DHT22;11549;50.852;3.816;2023-04-15T03:20:06;9.50;99.90
22765;DHT22;11549;50.852;3.816;2023-04-15T03:22:35;9.50;99.90
22765;DHT22;11549;50.852;3.816;2023-04-15T03:25:05;9.50;99.90
22765;DHT22;11549;50.852;3.816;2023-04-15T03:27:34;9.50;99.90
22765;DHT22;11549;50.852;3.816;2023-04-15T03:30:02;9.50;99.90
22765;DHT22;11549;50.852;3.816;2023-04-15T03:32:31;9.50;99.90
22765;DHT22;11549;50.852;3.816;2023-04-15T03:34:59;9.50;99.90
22765;DHT22;11549;50.852;3.816;2023-04-15T03:37:27;9.40;99.90
22765;DHT22;11549;50.852;3.816;2023-04-15T03:39:56;9.50;99.90
22765;DHT22;11549;50.852;3.816;2023-04-15T03:42:25;9.50;99.90
22765;DHT22;11549;50.852;3.816;2023-04-15T03:44:54;9.50;99.90
22765;DHT22;11549;50.852;3.816;2023-04-15T03:47:23;9.50;99.90
22765;DHT22;11549;50.852;3.816;2023-04-15T03:49:51;9.40;99.90
22765;DHT22;11549;50.852;3.816;2023-04-15T03:52:19;9.40;99.90
22765;DHT22;11549;50.852;3.816;2023-04-15T03:54:48;9.40;99.90
22765;DHT22;11549;50.852;3.816;2023-04-15T03:57:17;9.50;99.90
22765;DHT22;11549;50.852;3.816;2023-04-15T03:59:47;9.40;99.90
22765;DHT22;11549;50.852;3.816;2023-04-15T04:02:15;9.40;99.90
22765;DHT22;11549;50.852;3.816;2023-04-15T04:04:43;9.40;99.90
22765;DHT22;11549;50.852;3.816;2023-04-15T04:07:14;9.40;99.90
22765;DHT22;11549;50.852;3.816;2023-04-15T04:09:43;9.50;99.90
22765;DHT22;11549;50.852;3.816;2023-04-15T04:12:13;9.50;99.90
22765;DHT22;11549;50.852;3.816;2023-04-15T04:14:41;9.50;99.90
22765;DHT22;11549;50.852;3.816;2023-04-15T04:17:11;9.40;99.90
22765;DHT22;11549;50.852;3.816;2023-04-15T04:19:40;9.30;99.90
22765;DHT22;11549;50.852;3.816;2023-04-15T04:22:08;9.30;99.90
22765;DHT22;11549;50.852;3.816;2023-04-15T04:24:36;9.30;99.90
22765;DHT22;11549;50.852;3.816;2023-04-15T04:27:05;9.30;99.90
22765;DHT22;11549;50.852;3.816;2023-04-15T04:29:33;9.40;99.90
22765;DHT22;11549;50.852;3.816;2023-04-15T04:32:01;9.30;99.90
22765;DHT22;11549;50.852;3.816;2023-04-15T04:34:31;9.30;99.90
22765;DHT22;11549;50.852;3.816;2023-04-15T04:36:59;9.30;99.90
22765;DHT22;11549;50.852;3.816;2023-04-15T04:39:27;9.40;99.90
22765;DHT22;11549;50.852;3.816;2023-04-15T04:41:56;9.40;99.90
22765;DHT22;11549;50.852;3.816;2023-04-15T04:44:24;9.40;99.90
22765;DHT22;11549;50.852;3.816;2023-04-15T04:46:53;9.40;99.90
22765;DHT22;11549;50.852;3.816;2023-04-15T04:49:21;9.30;99.90
22765;DHT22;11549;50.852;3.816;2023-04-15T04:51:51;9.30;99.90
22765;DHT22;11549;50.852;3.816;2023-04-15T04:54:19;9.30;99.90
22765;DHT22;11549;50.852;3.816;2023-04-15T04:56:48;9.20;99.90
22765;DHT22;11549;50.852;3.816;2023-04-15T04:59:16;9.20;99.90
22765;DHT22;11549;50.852;3.816;2023-04-15T05:01:45;9.20;99.90
22765;DHT22;11549;50.852;3.816;2023-04-15T05:04:14;9.20;99.90
22765;DHT22;11549;50.852;3.816;2023-04-15T05:06:42;9.20;99.90
22765;DHT22;11549;50.852;3.816;2023-04-15T05:09:12;9.20;99.90
22765;DHT22;11549;50.852;3.816;2023-04-15T05:11:40;9.20;99.90
22765;DHT22;11549;50.852;3.816;2023-04-15T05:14:08;9.10;99.90
22765;DHT22;11549;50.852;3.816;2023-04-15T05:16:37;9.00;99.90
22765;DHT22;11549;50.852;3.816;2023-04-15T05:19:05;9.10;99.90
22765;DHT22;11549;50.852;3.816;2023-04-15T05:21:33;9.10;99.90
22765;DHT22;11549;50.852;3.816;2023-04-15T05:24:05;9.10;99.90
22765;DHT22;11549;50.852;3.816;2023-04-15T05:26:35;9.10;99.90
22765;DHT22;11549;50.852;3.816;2023-04-15T05:29:03;9.10;99.90
22765;DHT22;11549;50.852;3.816;2023-04-15T05:31:32;9.20;99.90
22765;DHT22;11549;50.852;3.816;2023-04-15T05:34:00;9.10;99.90
22765;DHT22;11549;50.852;3.816;2023-04-15T05:36:29;9.20;99.90
22765;DHT22;11549;50.852;3.816;2023-04-15T05:38:58;9.20;99.90
22765;DHT22;11549;50.852;3.816;2023-04-15T05:41:27;9.10;99.90
22765;DHT22;11549;50.852;3.816;2023-04-15T05:43:56;9.10;99.90
22765;DHT22;11549;50.852;3.816;2023-04-15T05:46:25;9.20;99.90
22765;DHT22;11549;50.852;3.816;2023-04-15T05:48:53;9.20;99.90
22765;DHT22;11549;50.852;3.816;2023-04-15T05:51:22;9.30;99.90
22765;DHT22;11549;50.852;3.816;2023-04-15T05:53:50;9.50;99.90
22765;DHT22;11549;50.852;3.816;2023-04-15T05:56:19;9.50;99.90
22765;DHT22;11549;50.852;3.816;2023-04-15T05:58:47;9.60;99.90
22765;DHT22;11549;50.852;3.816;2023-04-15T06:01:18;9.60;99.90
22765;DHT22;11549;50.852;3.816;2023-04-15T06:03:47;9.70;99.90
22765;DHT22;11549;50.852;3.816;2023-04-15T06:06:15;9.70;99.90
22765;DHT22;11549;50.852;3.816;2023-04-15T06:08:43;9.70;99.90
22765;DHT22;11549;50.852;3.816;2023-04-15T06:11:12;9.70;99.90
22765;DHT22;11549;50.852;3.816;2023-04-15T06:13:40;9.80;99.90
22765;DHT22;11549;50.852;3.816;2023-04-15T06:16:09;9.80;99.90
22765;DHT22;11549;50.852;3.816;2023-04-15T06:18:39;9.90;99.90
22765;DHT22;11549;50.852;3.816;2023-04-15T06:21:07;9.90;99.90
22765;DHT22;11549;50.852;3.816;2023-04-15T06:23:35;9.90;99.90
22765;DHT22;11549;50.852;3.816;2023-04-15T06:26:04;9.90;99.90
22765;DHT22;11549;50.852;3.816;2023-04-15T06:28:32;9.90;99.90
22765;DHT22;11549;50.852;3.816;2023-04-15T06:31:00;10.00;99.90
22765;DHT22;11549;50.852;3.816;2023-04-15T06:33:29;10.10;99.90
22765;DHT22;11549;50.852;3.816;2023-04-15T06:35:59;10.20;99.90
22765;DHT22;11549;50.852;3.816;2023-04-15T06:38:27;10.30;99.90
22765;DHT22;11549;50.852;3.816;2023-04-15T06:40:55;10.40;99.90
22765;DHT22;11549;50.852;3.816;2023-04-15T06:43:24;10.40;99.90
22765;DHT22;11549;50.852;3.816;2023-04-15T06:45:52;10.40;99.90
22765;DHT22;11549;50.852;3.816;2023-04-15T06:48:20;10.50;99.90
22765;DHT22;11549;50.852;3.816;2023-04-15T06:50:49;10.70;99.90
22765;DHT22;11549;50.852;3.816;2023-04-15T06:53:19;10.90;99.90
22765;DHT22;11549;50.852;3.816;2023-04-15T06:55:47;11.00;99.90
22765;DHT22;11549;50.852;3.816;2023-04-15T06:58:16;11.20;99.90
22765;DHT22;11549;50.852;3.816;2023-04-15T07:00:44;11.40;99.90
22765;DHT22;11549;50.852;3.816;2023-04-15T07:03:13;11.60;99.90
22765;DHT22;11549;50.852;3.816;2023-04-15T07:05:42;11.70;99.90
22765;DHT22;11549;50.852;3.816;2023-04-15T07:08:10;11.80;99.90
22765;DHT22;11549;50.852;3.816;2023-04-15T07:10:40;12.00;99.90
22765;DHT22;11549;50.852;3.816;2023-04-15T07:13:08;12.20;99.90
22765;DHT22;11549;50.852;3.816;2023-04-15T07:15:37;12.30;99.90
22765;DHT22;11549;50.852;3.816;2023-04-15T07:18:05;12.50;99.90
22765;DHT22;11549;50.852;3.816;2023-04-15T07:20:33;12.50;99.90
22765;DHT22;11549;50.852;3.816;2023-04-15T07:23:02;12.60;99.90
22765;DHT22;11549;50.852;3.816;2023-04-15T07:25:33;12.80;99.90
22765;DHT22;11549;50.852;3.816;2023-04-15T07:28:03;12.80;99.90
22765;DHT22;11549;50.852;3.816;2023-04-15T07:30:31;12.90;99.90
22765;DHT22;11549;50.852;3.816;2023-04-15T07:33:00;13.10;99.90
22765;DHT22;11549;50.852;3.816;2023-04-15T07:35:29;13.20;99.90
22765;DHT22;11549;50.852;3.816;2023-04-15T07:37:58;13.30;99.90
22765;DHT22;11549;50.852;3.816;2023-04-15T07:40:26;13.40;99.90
22765;DHT22;11549;50.852;3.816;2023-04-15T07:42:55;13.40;99.90
22765;DHT22;11549;50.852;3.816;2023-04-15T07:45:27;13.40;99.90
22765;DHT22;11549;50.852;3.816;2023-04-15T07:47:56;13.40;99.90
22765;DHT22;11549;50.852;3.816;2023-04-15T07:50:24;13.40;99.90
22765;DHT22;11549;50.852;3.816;2023-04-15T07:52:53;13.30;99.90
22765;DHT22;11549;50.852;3.816;2023-04-15T07:55:22;13.40;99.90
22765;DHT22;11549;50.852;3.816;2023-04-15T07:57:52;13.40;99.90
22765;DHT22;11549;50.852;3.816;2023-04-15T08:00:20;13.60;99.90
22765;DHT22;11549;50.852;3.816;2023-04-15T08:02:50;13.40;99.90
22765;DHT22;11549;50.852;3.816;2023-04-15T08:05:20;13.40;99.90
22765;DHT22;11549;50.852;3.816;2023-04-15T08:07:48;13.40;99.90
22765;DHT22;11549;50.852;3.816;2023-04-15T08:10:16;13.50;99.90
22765;DHT22;11549;50.852;3.816;2023-04-15T08:12:45;13.50;99.90
22765;DHT22;11549;50.852;3.816;2023-04-15T08:15:14;13.60;99.90
22765;DHT22;11549;50.852;3.816;2023-04-15T08:17:44;13.80;99.90
22765;DHT22;11549;50.852;3.816;2023-04-15T08:20:14;14.00;99.90
22765;DHT22;11549;50.852;3.816;2023-04-15T08:22:42;14.20;99.90
22765;DHT22;11549;50.852;3.816;2023-04-15T08:25:10;14.30;99.90
22765;DHT22;11549;50.852;3.816;2023-04-15T08:27:39;14.70;99.90
22765;DHT22;11549;50.852;3.816;2023-04-15T08:30:08;14.90;99.90
22765;DHT22;11549;50.852;3.816;2023-04-15T08:32:36;14.90;99.90
22765;DHT22;11549;50.852;3.816;2023-04-15T08:35:05;15.10;99.90
22765;DHT22;11549;50.852;3.816;2023-04-15T08:37:35;15.30;99.90
22765;DHT22;11549;50.852;3.816;2023-04-15T08:40:03;15.20;99.90
22765;DHT22;11549;50.852;3.816;2023-04-15T08:42:36;15.40;99.90
22765;DHT22;11549;50.852;3.816;2023-04-15T08:45:10;15.40;99.90
22765;DHT22;11549;50.852;3.816;2023-04-15T08:47:39;15.50;99.90
22765;DHT22;11549;50.852;3.816;2023-04-15T08:50:09;15.70;99.90
22765;DHT22;11549;50.852;3.816;2023-04-15T08:52:39;15.90;99.90
22765;DHT22;11549;50.852;3.816;2023-04-15T08:55:08;16.30;99.90
22765;DHT22;11549;50.852;3.816;2023-04-15T08:57:38;16.40;99.90
22765;DHT22;11549;50.852;3.816;2023-04-15T09:00:07;16.50;99.90
22765;DHT22;11549;50.852;3.816;2023-04-15T09:02:36;16.60;99.90
22765;DHT22;11549;50.852;3.816;2023-04-15T09:05:06;17.10;99.90
22765;DHT22;11549;50.852;3.816;2023-04-15T09:07:34;17.30;99.90
22765;DHT22;11549;50.852;3.816;2023-04-15T09:10:04;17.80;99.90
22765;DHT22;11549;50.852;3.816;2023-04-15T09:12:34;17.90;99.90
22765;DHT22;11549;50.852;3.816;2023-04-15T09:15:02;18.10;99.90
22765;DHT22;11549;50.852;3.816;2023-04-15T09:17:32;18.30;99.90
22765;DHT22;11549;50.852;3.816;2023-04-15T09:20:08;18.50;99.90
22765;DHT22;11549;50.852;3.816;2023-04-15T09:22:37;18.40;99.90
22765;DHT22;11549;50.852;3.816;2023-04-15T09:25:24;18.40;99.90
22765;DHT22;11549;50.852;3.816;2023-04-15T09:27:55;18.40;99.90
22765;DHT22;11549;50.852;3.816;2023-04-15T09:30:24;18.50;99.90
22765;DHT22;11549;50.852;3.816;2023-04-15T09:32:53;18.50;99.90
22765;DHT22;11549;50.852;3.816;2023-04-15T09:35:23;18.60;99.90
22765;DHT22;11549;50.852;3.816;2023-04-15T09:37:53;18.30;99.90
22765;DHT22;11549;50.852;3.816;2023-04-15T09:40:34;18.00;99.90
22765;DHT22;11549;50.852;3.816;2023-04-15T09:43:04;17.90;99.90
22765;DHT22;11549;50.852;3.816;2023-04-15T09:45:33;17.80;99.90
22765;DHT22;11549;50.852;3.816;2023-04-15T09:48:15;17.20;99.90
22765;DHT22;11549;50.852;3.816;2023-04-15T09:50:44;16.40;99.90
22765;DHT22;11549;50.852;3.816;2023-04-15T09:53:15;16.40;99.90
22765;DHT22;11549;50.852;3.816;2023-04-15T09:55:49;16.40;99.90
22765;DHT22;11549;50.852;3.816;2023-04-15T09:58:18;16.60;99.90
22765;DHT22;11549;50.852;3.816;2023-04-15T10:00:47;16.70;99.90
22765;DHT22;11549;50.852;3.816;2023-04-15T10:03:19;16.40;99.90
22765;DHT22;11549;50.852;3.816;2023-04-15T10:05:50;16.10;99.90
22765;DHT22;11549;50.852;3.816;2023-04-15T10:08:20;16.00;99.90
22765;DHT22;11549;50.852;3.816;2023-04-15T10:10:50;16.20;99.90
22765;DHT22;11549;50.852;3.816;2023-04-15T10:13:22;16.50;99.90
22765;DHT22;11549;50.852;3.816;2023-04-15T10:15:52;16.80;99.90
22765;DHT22;11549;50.852;3.816;2023-04-15T10:18:25;16.90;99.90
22765;DHT22;11549;50.852;3.816;2023-04-15T10:20:54;16.60;99.90
22765;DHT22;11549;50.852;3.816;2023-04-15T10:23:23;16.60;99.90
22765;DHT22;11549;50.852;3.816;2023-04-15T10:25:53;16.90;99.90
22765;DHT22;11549;50.852;3.816;2023-04-15T10:28:21;16.90;99.90
22765;DHT22;11549;50.852;3.816;2023-04-15T10:30:50;16.80;99.90
22765;DHT22;11549;50.852;3.816;2023-04-15T10:33:21;17.20;99.90
22765;DHT22;11549;50.852;3.816;2023-04-15T10:35:50;17.60;99.90
22765;DHT22;11549;50.852;3.816;2023-04-15T10:38:36;18.10;99.90
22765;DHT22;11549;50.852;3.816;2023-04-15T10:41:17;18.00;99.90
22765;DHT22;11549;50.852;3.816;2023-04-15T10:43:49;17.50;99.90
22765;DHT22;11549;50.852;3.816;2023-04-15T10:46:21;17.40;99.90
22765;DHT22;11549;50.852;3.816;2023-04-15T10:48:52;17.10;99.90
22765;DHT22;11549;50.852;3.816;2023-04-15T10:51:29;17.30;99.90
22765;DHT22;11549;50.852;3.816;2023-04-15T10:53:58;17.50;99.90
22765;DHT22;11549;50.852;3.816;2023-04-15T10:56:29;17.70;99.90
22765;DHT22;11549;50.852;3.816;2023-04-15T10:59:01;17.80;99.90
22765;DHT22;11549;50.852;3.816;2023-04-15T11:01:53;18.00;99.20
22765;DHT22;11549;50.852;3.816;2023-04-15T11:04:50;17.80;99.90
22765;DHT22;11549;50.852;3.816;2023-04-15T11:07:41;18.20;97.80
22765;DHT22;11549;50.852;3.816;2023-04-15T11:13:30;18.40;97.20
22765;DHT22;11549;50.852;3.816;2023-04-15T11:16:01;18.40;97.70
22765;DHT22;11549;50.852;3.816;2023-04-15T11:18:31;18.70;93.80
22765;DHT22;11549;50.852;3.816;2023-04-15T11:21:01;18.80;94.80
22765;DHT22;11549;50.852;3.816;2023-04-15T11:23:32;18.30;94.10
22765;DHT22;11549;50.852;3.816;2023-04-15T11:26:02;18.00;96.70
22765;DHT22;11549;50.852;3.816;2023-04-15T11:28:33;18.10;96.90
22765;DHT22;11549;50.852;3.816;2023-04-15T11:31:07;18.00;98.80
22765;DHT22;11549;50.852;3.816;2023-04-15T11:33:44;17.70;94.90
22765;DHT22;11549;50.852;3.816;2023-04-15T11:36:13;17.50;99.90
22765;DHT22;11549;50.852;3.816;2023-04-15T11:38:42;18.10;99.90
22765;DHT22;11549;50.852;3.816;2023-04-15T11:41:11;18.40;99.80
22765;DHT22;11549;50.852;3.816;2023-04-15T11:43:41;18.40;98.90
22765;DHT22;11549;50.852;3.816;2023-04-15T11:46:10;18.80;98.10
22765;DHT22;11549;50.852;3.816;2023-04-15T11:48:42;19.00;97.50
22765;DHT22;11549;50.852;3.816;2023-04-15T11:51:11;19.30;97.30
22765;DHT22;11549;50.852;3.816;2023-04-15T11:53:41;19.30;95.30
22765;DHT22;11549;50.852;3.816;2023-04-15T11:56:15;19.50;90.50
22765;DHT22;11549;50.852;3.816;2023-04-15T11:58:46;19.10;90.30
22765;DHT22;11549;50.852;3.816;2023-04-15T12:01:16;18.60;91.20
22765;DHT22;11549;50.852;3.816;2023-04-15T12:03:46;18.50;87.50
22765;DHT22;11549;50.852;3.816;2023-04-15T12:06:16;18.70;84.60
22765;DHT22;11549;50.852;3.816;2023-04-15T12:09:06;18.90;85.50
22765;DHT22;11549;50.852;3.816;2023-04-15T12:11:37;19.00;82.80
22765;DHT22;11549;50.852;3.816;2023-04-15T12:14:10;19.20;83.60
22765;DHT22;11549;50.852;3.816;2023-04-15T12:16:40;19.40;90.00
22765;DHT22;11549;50.852;3.816;2023-04-15T12:19:17;19.50;87.00
22765;DHT22;11549;50.852;3.816;2023-04-15T12:21:46;18.90;88.20
22765;DHT22;11549;50.852;3.816;2023-04-15T12:24:19;19.00;87.70
22765;DHT22;11549;50.852;3.816;2023-04-15T12:26:49;19.20;88.50
22765;DHT22;11549;50.852;3.816;2023-04-15T12:29:19;19.40;86.00
22765;DHT22;11549;50.852;3.816;2023-04-15T12:31:49;19.30;83.70
22765;DHT22;11549;50.852;3.816;2023-04-15T12:34:25;19.40;79.00
22765;DHT22;11549;50.852;3.816;2023-04-15T12:36:54;19.30;79.50
22765;DHT22;11549;50.852;3.816;2023-04-15T12:39:23;19.20;78.50
22765;DHT22;11549;50.852;3.816;2023-04-15T12:41:51;19.30;82.00
22765;DHT22;11549;50.852;3.816;2023-04-15T12:44:22;19.30;78.10
22765;DHT22;11549;50.852;3.816;2023-04-15T12:46:51;19.20;77.60
22765;DHT22;11549;50.852;3.816;2023-04-15T12:49:21;19.30;80.20
22765;DHT22;11549;50.852;3.816;2023-04-15T12:51:50;19.00;71.20
22765;DHT22;11549;50.852;3.816;2023-04-15T12:54:18;18.90;70.70
22765;DHT22;11549;50.852;3.816;2023-04-15T12:56:48;18.70;74.90
22765;DHT22;11549;50.852;3.816;2023-04-15T12:59:16;18.80;80.20
22765;DHT22;11549;50.852;3.816;2023-04-15T13:01:47;18.80;87.00
22765;DHT22;11549;50.852;3.816;2023-04-15T13:04:16;18.90;85.60
22765;DHT22;11549;50.852;3.816;2023-04-15T13:06:44;19.00;87.50
22765;DHT22;11549;50.852;3.816;2023-04-15T13:09:13;18.70;85.20
22765;DHT22;11549;50.852;3.816;2023-04-15T13:11:41;18.70;89.40
22765;DHT22;11549;50.852;3.816;2023-04-15T13:14:10;18.80;89.10
22765;DHT22;11549;50.852;3.816;2023-04-15T13:16:39;18.90;90.50
22765;DHT22;11549;50.852;3.816;2023-04-15T13:19:09;19.00;86.60
22765;DHT22;11549;50.852;3.816;2023-04-15T13:21:37;19.00;86.30
22765;DHT22;11549;50.852;3.816;2023-04-15T13:24:05;18.80;83.70
22765;DHT22;11549;50.852;3.816;2023-04-15T13:26:35;18.60;87.40
22765;DHT22;11549;50.852;3.816;2023-04-15T13:29:03;18.60;89.90
22765;DHT22;11549;50.852;3.816;2023-04-15T13:31:32;18.40;89.90
22765;DHT22;11549;50.852;3.816;2023-04-15T13:34:01;18.40;82.20
22765;DHT22;11549;50.852;3.816;2023-04-15T13:36:31;18.30;88.40
22765;DHT22;11549;50.852;3.816;2023-04-15T13:38:59;18.10;88.70
22765;DHT22;11549;50.852;3.816;2023-04-15T13:41:28;18.20;89.70
22765;DHT22;11549;50.852;3.816;2023-04-15T13:43:56;18.30;88.80
22765;DHT22;11549;50.852;3.816;2023-04-15T13:46:25;18.20;90.40
22765;DHT22;11549;50.852;3.816;2023-04-15T13:48:53;18.20;84.70
22765;DHT22;11549;50.852;3.816;2023-04-15T13:51:22;18.10;86.40
22765;DHT22;11549;50.852;3.816;2023-04-15T13:53:51;18.10;87.90
22765;DHT22;11549;50.852;3.816;2023-04-15T13:56:20;17.90;89.70
22765;DHT22;11549;50.852;3.816;2023-04-15T13:58:48;17.90;91.50
22765;DHT22;11549;50.852;3.816;2023-04-15T14:01:16;17.80;89.00
22765;DHT22;11549;50.852;3.816;2023-04-15T14:03:45;17.60;91.40
22765;DHT22;11549;50.852;3.816;2023-04-15T14:06:13;17.70;91.80
22765;DHT22;11549;50.852;3.816;2023-04-15T14:08:42;17.70;90.30
22765;DHT22;11549;50.852;3.816;2023-04-15T14:11:11;17.70;90.70
22765;DHT22;11549;50.852;3.816;2023-04-15T14:13:39;17.60;90.50
22765;DHT22;11549;50.852;3.816;2023-04-15T14:16:08;17.50;83.10
22765;DHT22;11549;50.852;3.816;2023-04-15T14:18:36;17.30;83.80
22765;DHT22;11549;50.852;3.816;2023-04-15T14:21:05;17.30;83.30
22765;DHT22;11549;50.852;3.816;2023-04-15T14:23:33;17.40;89.90
22765;DHT22;11549;50.852;3.816;2023-04-15T14:26:02;17.40;87.70
22765;DHT22;11549;50.852;3.816;2023-04-15T14:28:31;17.40;90.10
22765;DHT22;11549;50.852;3.816;2023-04-15T14:31:00;17.60;90.80
22765;DHT22;11549;50.852;3.816;2023-04-15T14:33:28;17.60;91.80
22765;DHT22;11549;50.852;3.816;2023-04-15T14:35:56;17.60;91.70
22765;DHT22;11549;50.852;3.816;2023-04-15T14:38:25;17.60;93.70
22765;DHT22;11549;50.852;3.816;2023-04-15T14:40:53;17.40;95.00
22765;DHT22;11549;50.852;3.816;2023-04-15T14:43:22;17.40;96.90
22765;DHT22;11549;50.852;3.816;2023-04-15T14:45:51;17.30;95.90
22765;DHT22;11549;50.852;3.816;2023-04-15T14:48:20;16.90;96.00
22765;DHT22;11549;50.852;3.816;2023-04-15T14:50:48;16.30;98.20
22765;DHT22;11549;50.852;3.816;2023-04-15T14:53:16;15.80;97.30
22765;DHT22;11549;50.852;3.816;2023-04-15T14:55:45;15.60;99.40
22765;DHT22;11549;50.852;3.816;2023-04-15T14:58:13;15.60;99.90
22765;DHT22;11549;50.852;3.816;2023-04-15T15:00:42;15.70;99.90
22765;DHT22;11549;50.852;3.816;2023-04-15T15:03:12;16.00;99.90
22765;DHT22;11549;50.852;3.816;2023-04-15T15:05:43;16.20;99.90
22765;DHT22;11549;50.852;3.816;2023-04-15T15:08:12;16.20;99.90
22765;DHT22;11549;50.852;3.816;2023-04-15T15:10:40;16.20;99.60
22765;DHT22;11549;50.852;3.816;2023-04-15T15:13:16;16.30;99.50
22765;DHT22;11549;50.852;3.816;2023-04-15T15:15:45;16.40;98.30
22765;DHT22;11549;50.852;3.816;2023-04-15T15:18:17;16.40;98.40
22765;DHT22;11549;50.852;3.816;2023-04-15T15:20:45;16.40;99.90
22765;DHT22;11549;50.852;3.816;2023-04-15T15:23:14;16.60;99.90
22765;DHT22;11549;50.852;3.816;2023-04-15T15:25:42;16.70;99.90
22765;DHT22;11549;50.852;3.816;2023-04-15T15:28:11;16.80;99.90
22765;DHT22;11549;50.852;3.816;2023-04-15T15:30:39;16.70;99.20
22765;DHT22;11549;50.852;3.816;2023-04-15T15:33:07;16.60;99.80
22765;DHT22;11549;50.852;3.816;2023-04-15T15:35:38;16.70;99.20
22765;DHT22;11549;50.852;3.816;2023-04-15T15:38:07;16.50;99.90
22765;DHT22;11549;50.852;3.816;2023-04-15T15:40:35;16.50;99.90
22765;DHT22;11549;50.852;3.816;2023-04-15T15:43:03;16.50;99.40
22765;DHT22;11549;50.852;3.816;2023-04-15T15:45:31;16.50;99.00
22765;DHT22;11549;50.852;3.816;2023-04-15T15:48:00;16.10;99.40
22765;DHT22;11549;50.852;3.816;2023-04-15T15:50:28;16.00;99.70
22765;DHT22;11549;50.852;3.816;2023-04-15T15:52:58;15.80;99.80